createdAt,value
2019-02-04T00:02:19.078Z,100688.10
2019-02-04T00:07:37.774Z,100688.82
2019-02-04T00:12:56.395Z,100690.30
2019-02-04T00:18:15.066Z,100683.09
2019-02-04T00:23:35.192Z,100697.91
2019-02-04T00:28:53.776Z,100697.77
2019-02-04T00:34:12.599Z,100696.76
2019-02-04T00:39:31.214Z,100701.19
2019-02-04T00:44:50.127Z,100709.25
2019-02-04T00:50:12.009Z,100703.33
2019-02-04T00:55:30.658Z,100713.03
2019-02-04T01:00:49.356Z,100724.93
2019-02-04T01:06:08.000Z,100723.86
2019-02-04T01:11:26.641Z,100735.86
2019-02-04T01:16:45.947Z,100734.69
2019-02-04T01:22:04.668Z,100733.98
2019-02-04T01:27:23.277Z,100732.89
2019-02-04T01:32:41.753Z,100734.41
2019-02-04T01:38:00.295Z,100726.91
2019-02-04T01:43:18.785Z,100733.08
2019-02-04T01:48:37.620Z,100739.23
2019-02-04T01:53:56.195Z,100754.28
2019-02-04T01:59:15.058Z,100765.84
2019-02-04T02:04:34.318Z,100754.09
2019-02-04T02:09:52.976Z,100749.66
2019-02-04T02:15:11.579Z,100748.52
2019-02-04T02:20:30.593Z,100759.22
2019-02-04T02:25:49.255Z,100752.00
2019-02-04T02:31:07.875Z,100745.72
2019-02-04T02:36:26.694Z,100749.58
2019-02-04T02:41:45.246Z,100747.48
2019-02-04T02:47:03.806Z,100735.00
2019-02-04T02:52:22.359Z,100730.89
2019-02-04T02:57:41.057Z,100727.83
2019-02-04T03:03:00.924Z,100728.11
2019-02-04T03:08:19.423Z,100728.72
2019-02-04T03:13:38.081Z,100742.69
2019-02-04T03:18:56.643Z,100753.71
2019-02-04T03:24:15.218Z,100759.05
2019-02-04T03:29:33.790Z,100766.34
2019-02-04T03:34:52.279Z,100759.50
2019-02-04T03:40:14.099Z,100755.69
2019-02-04T03:45:32.708Z,100751.59
2019-02-04T03:50:51.260Z,100754.20
2019-02-04T03:56:09.877Z,100759.73
2019-02-04T04:01:29.166Z,100761.27
2019-02-04T04:06:47.809Z,100764.89
2019-02-04T04:12:06.409Z,100761.28
2019-02-04T04:17:25.255Z,100763.34
2019-02-04T04:22:43.883Z,100765.18
2019-02-04T04:28:02.426Z,100766.34
2019-02-04T04:33:21.040Z,100763.01
2019-02-04T04:38:39.531Z,100755.37
2019-02-04T04:43:58.153Z,100758.50
2019-02-04T04:49:16.699Z,100748.60
2019-02-04T04:54:35.471Z,100746.48
2019-02-04T04:59:54.357Z,100746.89
2019-02-04T05:05:14.477Z,100752.27
2019-02-04T05:10:33.030Z,100740.11
2019-02-04T05:15:51.796Z,100741.94
2019-02-04T05:21:10.410Z,100739.13
2019-02-04T05:26:29.052Z,100747.08
2019-02-04T05:31:47.602Z,100751.88
2019-02-04T05:37:06.251Z,100749.58
2019-02-04T05:42:24.799Z,100747.98
2019-02-04T05:47:43.431Z,100756.14
2019-02-04T05:53:03.858Z,100762.98
2019-02-04T05:58:22.440Z,100772.72
2019-02-04T06:03:41.361Z,100773.06
2019-02-04T06:09:00.102Z,100780.47
2019-02-04T06:14:18.750Z,100789.37
2019-02-04T06:19:37.519Z,100785.06
2019-02-04T06:24:56.148Z,100784.37
2019-02-04T06:30:16.634Z,100781.99
2019-02-04T06:35:35.274Z,100763.28
2019-02-04T06:40:53.881Z,100770.05
2019-02-04T06:46:12.519Z,100766.89
2019-02-04T06:51:31.123Z,100768.77
2019-02-04T06:56:49.637Z,100772.59
2019-02-04T07:02:08.304Z,100767.28
2019-02-04T07:07:26.928Z,100755.16
2019-02-04T07:12:45.791Z,100750.47
2019-02-04T07:18:04.404Z,100749.16
2019-02-04T07:23:23.000Z,100741.71
2019-02-04T07:28:41.645Z,100745.22
2019-02-04T07:34:00.186Z,100748.99
2019-02-04T07:39:18.739Z,100747.22
2019-02-04T07:44:37.297Z,100744.02
2019-02-04T07:49:55.841Z,100745.55
2019-02-04T07:55:14.846Z,100741.19
2019-02-04T08:00:36.417Z,100730.34
2019-02-04T08:05:54.961Z,100732.53
2019-02-04T08:11:13.581Z,100742.27
2019-02-04T08:16:32.070Z,100747.02
2019-02-04T08:21:50.686Z,100741.50
2019-02-04T08:27:09.317Z,100747.12
2019-02-04T08:32:27.862Z,100755.34
2019-02-04T08:37:46.489Z,100757.00
2019-02-04T08:43:05.207Z,100747.70
2019-02-04T08:48:23.842Z,100743.84
2019-02-04T08:53:42.404Z,100740.91
2019-02-04T08:59:01.021Z,100729.02
2019-02-04T09:04:19.747Z,100724.00
2019-02-04T09:09:38.433Z,100714.38
2019-02-04T09:14:56.973Z,100714.80
2019-02-04T09:20:17.740Z,100726.22
2019-02-04T09:25:36.386Z,100724.77
2019-02-04T09:30:55.089Z,100720.30
2019-02-04T09:36:13.697Z,100734.76
2019-02-04T09:41:32.275Z,100725.23
2019-02-04T09:46:51.133Z,100731.19
2019-02-04T09:52:09.813Z,100718.22
2019-02-04T09:57:28.503Z,100711.87
2019-02-04T10:02:47.141Z,100713.68
2019-02-04T10:08:06.751Z,100717.66
2019-02-04T10:13:25.398Z,100714.77
2019-02-04T10:18:43.927Z,100713.77
2019-02-04T10:24:02.540Z,100711.72
2019-02-04T10:29:21.276Z,100712.46
2019-02-04T10:34:39.877Z,100716.22
2019-02-04T10:39:58.631Z,100707.92
2019-02-04T10:45:18.891Z,100698.15
2019-02-04T10:50:46.122Z,100692.66
2019-02-04T10:55:59.880Z,100692.02
2019-02-04T11:01:19.045Z,100686.48
2019-02-04T11:06:37.728Z,100679.20
2019-02-04T11:11:56.311Z,100681.85
2019-02-04T11:17:15.089Z,100670.34
2019-02-04T11:22:33.689Z,100668.63
2019-02-04T11:27:52.268Z,100659.05
2019-02-04T11:33:11.096Z,100658.30
2019-02-04T11:38:29.739Z,100648.72
2019-02-04T11:43:48.221Z,100643.80
2019-02-04T11:49:06.817Z,100650.84
2019-02-04T11:54:25.429Z,100644.56
2019-02-04T11:59:44.256Z,100647.64
2019-02-04T12:05:02.763Z,100642.78
2019-02-04T12:10:24.283Z,100640.84
2019-02-04T12:15:42.897Z,100642.35
2019-02-04T12:21:01.470Z,100636.67
2019-02-04T12:26:20.015Z,100633.41
2019-02-04T12:31:38.624Z,100632.09
2019-02-04T12:36:57.256Z,100624.48
2019-02-04T12:42:16.111Z,100615.17
2019-02-04T12:47:36.112Z,100622.28
2019-02-04T12:52:54.726Z,100615.66
2019-02-04T12:58:13.342Z,100613.22
2019-02-04T13:03:31.948Z,100611.53
2019-02-04T13:08:50.485Z,100608.18
2019-02-04T13:14:09.282Z,100612.37
2019-02-04T13:19:27.828Z,100596.25
2019-02-04T13:24:46.430Z,100595.35
2019-02-04T13:30:11.209Z,100588.84
2019-02-04T13:35:31.096Z,100584.19
2019-02-04T13:40:49.727Z,100580.58
2019-02-04T13:46:08.334Z,100577.03
2019-02-04T13:51:26.953Z,100579.20
2019-02-04T13:56:49.532Z,100570.03
2019-02-04T14:02:08.686Z,100566.63
2019-02-04T14:07:27.297Z,100567.66
2019-02-04T14:12:46.495Z,100578.70
2019-02-04T14:18:06.219Z,100569.52
2019-02-04T14:23:27.468Z,100566.53
2019-02-04T14:28:45.356Z,100560.77
2019-02-04T14:34:06.357Z,100551.48
2019-02-04T14:39:25.121Z,100555.71
2019-02-04T14:44:45.127Z,100544.12
2019-02-04T14:50:12.329Z,100540.67
2019-02-04T14:55:46.092Z,100537.79
2019-02-04T15:01:36.210Z,100526.17
2019-02-04T15:07:00.577Z,100524.16
2019-02-04T15:12:38.655Z,100536.41
2019-02-04T15:18:11.387Z,100533.92
2019-02-04T15:23:44.869Z,100530.30
2019-02-04T15:29:09.261Z,100532.77
2019-02-04T15:34:36.267Z,100531.00
2019-02-04T15:40:00.851Z,100519.06
2019-02-04T15:45:56.911Z,100522.27
2019-02-04T15:51:24.504Z,100526.78
2019-02-04T15:56:43.285Z,100524.75
2019-02-04T16:02:01.905Z,100524.20
2019-02-04T16:07:20.445Z,100523.86
2019-02-04T16:12:39.075Z,100524.34
2019-02-04T16:17:57.628Z,100517.08
2019-02-04T16:23:16.236Z,100517.91
2019-02-04T16:28:34.769Z,100503.09
2019-02-04T16:33:53.460Z,100495.09
2019-02-04T16:39:12.407Z,100487.70
2019-02-04T16:44:31.087Z,100488.88
2019-02-04T16:49:49.688Z,100492.48
2019-02-04T16:55:08.901Z,100492.32
2019-02-04T17:00:29.629Z,100481.83
2019-02-04T17:05:48.317Z,100489.50
2019-02-04T17:11:06.922Z,100479.48
2019-02-04T17:16:25.806Z,100472.06
2019-02-04T17:21:44.617Z,100483.14
2019-02-04T17:27:03.210Z,100491.72
2019-02-04T17:32:22.261Z,100503.08
2019-02-04T17:37:40.882Z,100497.28
2019-02-04T17:42:59.497Z,100494.89
2019-02-04T17:48:18.139Z,100496.53
2019-02-04T17:53:36.746Z,100495.42
2019-02-04T17:58:55.359Z,100497.77
2019-02-04T18:04:13.968Z,100497.24
2019-02-04T18:09:32.516Z,100484.17
2019-02-04T18:14:51.170Z,100495.02
2019-02-04T18:20:11.664Z,100492.80
2019-02-04T18:25:30.293Z,100478.82
2019-02-04T18:30:48.859Z,100476.77
2019-02-04T18:36:07.488Z,100479.23
2019-02-04T18:41:26.237Z,100471.36
2019-02-04T18:46:44.810Z,100476.20
2019-02-04T18:52:03.460Z,100477.03
2019-02-04T18:57:22.345Z,100449.91
2019-02-04T19:02:43.815Z,100449.37
2019-02-04T19:08:02.440Z,100458.17
2019-02-04T19:13:21.072Z,100467.31
2019-02-04T19:18:39.654Z,100456.48
2019-02-04T19:24:09.067Z,100468.20
2019-02-04T19:29:18.812Z,100469.70
2019-02-04T19:34:37.802Z,100481.02
2019-02-04T19:39:56.330Z,100476.25
2019-02-04T19:45:20.371Z,100461.36
2019-02-04T19:50:39.368Z,100457.42
2019-02-04T19:55:58.393Z,100465.92
2019-02-04T20:01:16.992Z,100460.20
2019-02-04T20:06:35.566Z,100459.72
2019-02-04T20:11:54.319Z,100450.39
2019-02-04T20:17:12.890Z,100456.75
2019-02-04T20:22:31.565Z,100463.11
2019-02-04T20:27:50.360Z,100465.97
2019-02-04T20:33:10.571Z,100475.38
2019-02-04T20:38:29.407Z,100482.52
2019-02-04T20:43:55.946Z,100476.05
2019-02-04T20:49:14.606Z,100500.73
2019-02-04T20:54:44.547Z,100512.21
2019-02-04T20:59:53.559Z,100520.20
2019-02-04T21:05:12.743Z,100514.67
2019-02-04T21:10:31.762Z,100516.95
2019-02-04T21:15:50.339Z,100510.55
2019-02-04T21:21:09.009Z,100507.16
2019-02-04T21:26:27.837Z,100515.63
2019-02-04T21:31:46.328Z,100533.86
2019-02-04T21:37:31.281Z,100543.87
2019-02-04T21:42:54.090Z,100517.15
2019-02-04T21:48:12.792Z,100525.64
2019-02-04T21:53:31.341Z,100531.84
2019-02-04T21:58:49.957Z,100538.83
2019-02-04T22:04:08.675Z,100535.17
2019-02-04T22:09:27.225Z,100536.13
2019-02-04T22:14:45.773Z,100527.99
2019-02-04T22:20:09.373Z,100535.70
2019-02-04T22:25:28.078Z,100526.95
2019-02-04T22:30:49.801Z,100534.86
2019-02-04T22:36:08.545Z,100536.33
2019-02-04T22:41:27.175Z,100537.68
2019-02-04T22:46:45.755Z,100539.98
2019-02-04T22:52:04.676Z,100552.84
2019-02-04T22:57:23.300Z,100565.17
2019-02-04T23:02:42.083Z,100541.94
2019-02-04T23:08:00.699Z,100542.42
2019-02-04T23:13:19.340Z,100551.21
2019-02-04T23:18:37.889Z,100545.27
2019-02-04T23:23:56.503Z,100542.91
2019-02-04T23:29:15.127Z,100551.31
2019-02-04T23:34:33.667Z,100561.01
2019-02-04T23:39:52.204Z,100562.50
2019-02-04T23:45:11.826Z,100560.80
2019-02-04T23:50:30.746Z,100572.53
2019-02-04T23:55:54.750Z,100578.67
